Nearby METAR Reports

 

KLXT - Lees Summit Muni, Missouri, USA
Distance from station: E 5mi, 9km
Updated: Thu, 03-Sep-2015 7:53pm CDT
Clear
Clear
 Wind from S
Wind: S 6 mph , 9 km/h
Temperature: 82°F , 28°C
Heat Index: 84°F , 29°C
Dew Point: 66°F , 19°C
Humidity: 58%
Barometer: 29.90 inHg , 1012.5 hPa
Clouds: Clear
Visibility: 10 miles , 16 km
2015/09/04 00:53 KLXT 040053Z AUTO 19005KT 10SM CLR 28/19 A2990 RMK AO2 SLP114 T02830189
KMKC - Kansas City/Dntn, Missouri, USA
Distance from station: NW 12mi, 19km
Updated: Thu, 03-Sep-2015 7:54pm CDT
Clear
Clear
 Wind from S
Wind: S 8 mph , 13 km/h
Temperature: 84°F , 29°C
Heat Index: 86°F , 30°C
Dew Point: 66°F , 19°C
Humidity: 55%
Barometer: 29.87 inHg , 1011.5 hPa
Clouds: Clear
Visibility: 10 miles , 16 km
2015/09/04 00:54 KMKC 040054Z 18007KT 10SM CLR 29/19 A2987 RMK AO2 SLP105 T02940194
 
KIXD - Olathe/Industria, Kansas, USA
Distance from station: WSW 25mi, 41km
Updated: Thu, 03-Sep-2015 7:53pm CDT
Clear
Clear
 Wind from S
Wind: S 6 mph , 9 km/h
Temperature: 79°F , 26°C
Dew Point: 70°F , 21°C
Humidity: 74%
Barometer: 29.90 inHg , 1012.5 hPa
Clouds: Clear
Visibility: 10 miles , 16 km
2015/09/04 00:53 KIXD 040053Z 17005KT 10SM CLR 26/21 A2990 RMK AO2 SLP112 T02560211
KMCI - Kansas City/Intl, Missouri, USA
Distance from station: NW 26mi, 42km
Updated: Thu, 03-Sep-2015 7:53pm CDT
Partly cloudy
Partly cloudy
 Wind from S
Wind: S 8 mph , 13 km/h
Temperature: 79°F , 26°C
Dew Point: 66°F , 19°C
Humidity: 65%
Barometer: 29.88 inHg , 1011.9 hPa
Clouds: Partly cloudy
Visibility: 10 miles , 16 km
Cloud details: Partly cloudy 25000 ft
2015/09/04 00:53 KMCI 040053Z 18007KT 10SM SCT250 26/19 A2988 RMK AO2 SLP108 T02560194
 
KRCM - Warrensburg Skyh, Missouri, USA
Distance from station: ESE 38mi, 62km
Updated: Thu, 03-Sep-2015 8:15pm CDT
Clear
Clear
 Wind from SSE
Wind: SSE 3 mph , 6 km/h
Temperature: 81°F , 27°C
Heat Index: 83°F , 28°C
Dew Point: 66°F , 19°C
Humidity: 62%
Barometer: 29.90 inHg , 1012.5 hPa
Clouds: Clear
Visibility: 10 miles , 16 km
2015/09/04 01:15 KRCM 040115Z AUTO 15003KT 10SM CLR 27/19 A2990 RMK AO2
KLWC - Lawrence, Kansas, USA
Distance from station: W 40mi, 65km
Updated: Thu, 03-Sep-2015 7:52pm CDT
Clear
Clear
 Wind from S
Wind: S 8 mph , 13 km/h
Temperature: 81°F , 27°C
Heat Index: 83°F , 28°C
Dew Point: 66°F , 19°C
Humidity: 62%
Barometer: 29.87 inHg , 1011.5 hPa
Clouds: Clear
Visibility: 10 miles , 16 km
2015/09/04 00:52 KLWC 040052Z AUTO 17007KT 10SM CLR 27/19 A2987 RMK AO2 SLP105 T02670194
 
KSZL - Whiteman Afb, Missouri, USA
Distance from station: ESE 53mi, 86km
Updated: Thu, 03-Sep-2015 7:58pm CDT
Few Clouds
Few Clouds
 Wind from SSW
Wind: SSW 5 mph , 7 km/h
Temperature: 81°F , 27°C
Heat Index: 84°F , 29°C
Dew Point: 68°F , 20°C
Humidity: 66%
Barometer: 29.89 inHg , 1012.2 hPa
Clouds: Few Clouds
Visibility: 10 miles , 16 km
Cloud details: Few Clouds 5000 ft
2015/09/04 00:58 KSZL 040058Z 20004KT 10SM FEW050 27/20 A2989 RMK AO2A SLP117 T02740203
KSTJ - St. Joseph, Missouri, USA
Distance from station: NNW 59mi, 95km
Updated: Thu, 03-Sep-2015 7:53pm CDT
Clear
Clear
 Wind from S
Wind: S 9 mph , 15 km/h
Temperature: 81°F , 27°C
Heat Index: 85°F , 29°C
Dew Point: 70°F , 21°C
Humidity: 70%
Barometer: 29.86 inHg , 1011.2 hPa
Clouds: Clear
Visibility: 10 miles , 16 km
2015/09/04 00:53 KSTJ 040053Z AUTO 17008KT 10SM CLR 27/21 A2986 RMK AO2 SLP102 T02720206
 
KGLY - Clinton, Missouri, USA
Distance from station: SE 61mi, 98km
Updated: Thu, 03-Sep-2015 8:15pm CDT
Clear
Clear
 Wind from calm
Wind: Calm
Temperature: 81°F , 27°C
Heat Index: 85°F , 29°C
Dew Point: 72°F , 22°C
Humidity: 74%
Barometer: 29.91 inHg , 1012.9 hPa
Clouds: Clear
Visibility: 10 miles , 16 km
2015/09/04 01:15 KGLY 040115Z AUTO 00000KT 10SM CLR 27/22 A2991 RMK AO2
KFOE - Topeka/Forbes, Kansas, USA
Distance from station: W 64mi, 103km
Updated: Thu, 03-Sep-2015 7:53pm CDT
Clear
Clear
 Wind from SE
Wind: SE 8 mph , 13 km/h
Temperature: 82°F , 28°C
Heat Index: 85°F , 29°C
Dew Point: 68°F , 20°C
Humidity: 62%
Barometer: 29.86 inHg , 1011.2 hPa
Clouds: Clear
Visibility: 10 miles , 16 km
2015/09/04 00:53 KFOE 040053Z 14007KT 10SM CLR 28/20 A2986 RMK AO2 SLP101 T02780200
 
KDMO - Sedalia, Missouri, USA
Distance from station: ESE 72mi, 116km
Updated: Thu, 03-Sep-2015 7:53pm CDT
Clear
Clear
 Wind from S
Wind: S 5 mph , 7 km/h
Temperature: 82°F , 28°C
Heat Index: 84°F , 29°C
Dew Point: 66°F , 19°C
Humidity: 58%
Barometer: 29.92 inHg , 1013.2 hPa
Clouds: Clear
Visibility: 10 miles , 16 km
2015/09/04 00:53 KDMO 040053Z AUTO 19004KT 10SM CLR 28/19 A2992 RMK AO2 SLP123 T02830194
KCDJ - Chillicothe, Missouri, USA
Distance from station: NE 74mi, 120km
Updated: Thu, 03-Sep-2015 7:52pm CDT

 Wind from SSE
Wind: SSE 3 mph , 6 km/h
Temperature: 82°F , 28°C
Heat Index: 86°F , 30°C
Dew Point: 70°F , 21°C
Humidity: 66%
Barometer: 29.89 inHg , 1012.2 hPa
2015/09/04 00:52 KCDJ 040052Z AUTO 16003KT 28/21 A2989 RMK AO1 SLP107 T02830206
 
KFNB - Falls City/Brenn, Nebraska, USA
Distance from station: NW 96mi, 154km
Updated: Thu, 03-Sep-2015 7:53pm CDT
Clear
Clear
 Wind from SSE
Wind: SSE 8 mph , 13 km/h
Temperature: 81°F , 27°C
Heat Index: 85°F , 29°C
Dew Point: 70°F , 21°C
Humidity: 70%
Barometer: 29.83 inHg , 1010.2 hPa
Clouds: Clear
Visibility: 10 miles , 16 km
2015/09/04 00:53 KFNB 040053Z AUTO 16007KT 10SM CLR 27/21 A2983 RMK AO2 SLP091 T02720206
KVER - Boonville, Missouri, USA
Distance from station: E 96mi, 154km
Updated: Thu, 03-Sep-2015 8:15pm CDT
Clear
Clear
 Wind from SE
Wind: SE 3 mph , 6 km/h
Temperature: 81°F , 27°C
Heat Index: 85°F , 29°C
Dew Point: 70°F , 21°C
Humidity: 70%
Barometer: 29.90 inHg , 1012.5 hPa
Clouds: Clear
Visibility: 10 miles , 16 km
2015/09/04 01:15 KVER 040115Z AUTO 13003KT 10SM CLR 27/21 A2990 RMK AO2 T02710206